sensor_id;sensor_type;location;lat;lon;timestamp;P1;durP1;ratioP1;P2;durP2;ratioP2
16743;SDS011;71724;-33.900;151.182;2023-12-07T00:00:55;14.48;;;5.30;;
16743;SDS011;71724;-33.900;151.182;2023-12-07T00:03:22;14.48;;;5.25;;
16743;SDS011;71724;-33.900;151.182;2023-12-07T00:05:51;18.05;;;5.15;;
16743;SDS011;71724;-33.900;151.182;2023-12-07T00:08:19;12.70;;;5.45;;
16743;SDS011;71724;-33.900;151.182;2023-12-07T00:10:50;15.18;;;4.85;;
16743;SDS011;71724;-33.900;151.182;2023-12-07T00:13:18;19.00;;;5.18;;
16743;SDS011;71724;-33.900;151.182;2023-12-07T00:15:45;18.65;;;5.30;;
16743;SDS011;71724;-33.900;151.182;2023-12-07T00:18:13;17.02;;;5.43;;
16743;SDS011;71724;-33.900;151.182;2023-12-07T00:20:40;17.02;;;5.32;;
16743;SDS011;71724;-33.900;151.182;2023-12-07T00:23:08;16.83;;;5.22;;
16743;SDS011;71724;-33.900;151.182;2023-12-07T00:25:35;15.98;;;5.50;;
16743;SDS011;71724;-33.900;151.182;2023-12-07T00:28:04;15.68;;;5.80;;
16743;SDS011;71724;-33.900;151.182;2023-12-07T00:30:32;16.73;;;5.90;;
16743;SDS011;71724;-33.900;151.182;2023-12-07T00:33:00;16.35;;;5.95;;
16743;SDS011;71724;-33.900;151.182;2023-12-07T00:35:32;21.17;;;6.25;;
16743;SDS011;71724;-33.900;151.182;2023-12-07T00:37:59;18.45;;;6.13;;
16743;SDS011;71724;-33.900;151.182;2023-12-07T00:40:28;14.32;;;5.97;;
16743;SDS011;71724;-33.900;151.182;2023-12-07T00:43:01;20.00;;;5.95;;
16743;SDS011;71724;-33.900;151.182;2023-12-07T00:45:29;18.65;;;5.68;;
16743;SDS011;71724;-33.900;151.182;2023-12-07T00:47:58;20.25;;;5.68;;
16743;SDS011;71724;-33.900;151.182;2023-12-07T00:50:27;14.85;;;5.07;;
16743;SDS011;71724;-33.900;151.182;2023-12-07T00:52:55;16.80;;;5.80;;
16743;SDS011;71724;-33.900;151.182;2023-12-07T00:55:24;14.32;;;5.55;;
16743;SDS011;71724;-33.900;151.182;2023-12-07T00:57:52;14.30;;;5.55;;
16743;SDS011;71724;-33.900;151.182;2023-12-07T01:00:22;20.92;;;5.85;;
16743;SDS011;71724;-33.900;151.182;2023-12-07T01:02:50;15.05;;;6.15;;
16743;SDS011;71724;-33.900;151.182;2023-12-07T01:05:18;19.30;;;5.82;;
16743;SDS011;71724;-33.900;151.182;2023-12-07T01:07:48;17.45;;;6.35;;
16743;SDS011;71724;-33.900;151.182;2023-12-07T01:10:16;23.45;;;6.13;;
16743;SDS011;71724;-33.900;151.182;2023-12-07T01:12:44;17.67;;;6.05;;
16743;SDS011;71724;-33.900;151.182;2023-12-07T01:15:15;16.00;;;6.05;;
16743;SDS011;71724;-33.900;151.182;2023-12-07T01:17:43;16.92;;;5.85;;
16743;SDS011;71724;-33.900;151.182;2023-12-07T01:20:11;18.70;;;6.07;;
16743;SDS011;71724;-33.900;151.182;2023-12-07T01:22:41;11.52;;;5.80;;
16743;SDS011;71724;-33.900;151.182;2023-12-07T01:25:11;16.63;;;6.07;;
16743;SDS011;71724;-33.900;151.182;2023-12-07T01:27:47;14.07;;;5.90;;
16743;SDS011;71724;-33.900;151.182;2023-12-07T01:30:17;17.63;;;7.03;;
16743;SDS011;71724;-33.900;151.182;2023-12-07T01:32:49;13.93;;;6.15;;
16743;SDS011;71724;-33.900;151.182;2023-12-07T01:35:17;15.68;;;5.60;;
16743;SDS011;71724;-33.900;151.182;2023-12-07T01:37:46;16.63;;;6.35;;
16743;SDS011;71724;-33.900;151.182;2023-12-07T01:40:15;16.45;;;6.30;;
16743;SDS011;71724;-33.900;151.182;2023-12-07T01:42:53;15.43;;;5.72;;
16743;SDS011;71724;-33.900;151.182;2023-12-07T01:45:22;16.92;;;6.57;;
16743;SDS011;71724;-33.900;151.182;2023-12-07T01:47:50;19.65;;;6.00;;
16743;SDS011;71724;-33.900;151.182;2023-12-07T01:50:24;20.10;;;6.72;;
16743;SDS011;71724;-33.900;151.182;2023-12-07T01:52:54;17.95;;;6.20;;
16743;SDS011;71724;-33.900;151.182;2023-12-07T01:55:28;19.50;;;6.53;;
16743;SDS011;71724;-33.900;151.182;2023-12-07T01:57:58;17.73;;;5.82;;
16743;SDS011;71724;-33.900;151.182;2023-12-07T02:00:26;16.60;;;6.75;;
16743;SDS011;71724;-33.900;151.182;2023-12-07T02:02:55;15.43;;;5.38;;
16743;SDS011;71724;-33.900;151.182;2023-12-07T02:05:23;13.95;;;5.60;;
16743;SDS011;71724;-33.900;151.182;2023-12-07T02:07:53;18.60;;;5.68;;
16743;SDS011;71724;-33.900;151.182;2023-12-07T02:10:21;16.73;;;5.45;;
16743;SDS011;71724;-33.900;151.182;2023-12-07T02:12:53;13.98;;;5.40;;
16743;SDS011;71724;-33.900;151.182;2023-12-07T02:15:21;14.60;;;5.60;;
16743;SDS011;71724;-33.900;151.182;2023-12-07T02:18:26;12.80;;;4.65;;
16743;SDS011;71724;-33.900;151.182;2023-12-07T02:21:18;16.15;;;5.55;;
16743;SDS011;71724;-33.900;151.182;2023-12-07T02:23:45;16.02;;;4.68;;
16743;SDS011;71724;-33.900;151.182;2023-12-07T02:26:29;15.32;;;4.70;;
16743;SDS011;71724;-33.900;151.182;2023-12-07T02:29:06;17.33;;;4.63;;
16743;SDS011;71724;-33.900;151.182;2023-12-07T02:31:34;15.82;;;4.90;;
16743;SDS011;71724;-33.900;151.182;2023-12-07T02:34:04;18.05;;;5.05;;
16743;SDS011;71724;-33.900;151.182;2023-12-07T02:36:32;16.42;;;5.28;;
16743;SDS011;71724;-33.900;151.182;2023-12-07T02:39:06;12.60;;;4.57;;
16743;SDS011;71724;-33.900;151.182;2023-12-07T02:41:35;14.65;;;4.65;;
16743;SDS011;71724;-33.900;151.182;2023-12-07T02:44:11;17.75;;;5.07;;
16743;SDS011;71724;-33.900;151.182;2023-12-07T02:46:39;16.33;;;5.60;;
16743;SDS011;71724;-33.900;151.182;2023-12-07T02:49:07;17.40;;;5.82;;
16743;SDS011;71724;-33.900;151.182;2023-12-07T02:51:47;15.90;;;4.90;;
16743;SDS011;71724;-33.900;151.182;2023-12-07T02:54:15;16.73;;;5.22;;
16743;SDS011;71724;-33.900;151.182;2023-12-07T02:56:47;18.58;;;5.78;;
16743;SDS011;71724;-33.900;151.182;2023-12-07T02:59:16;18.65;;;5.45;;
16743;SDS011;71724;-33.900;151.182;2023-12-07T03:01:48;17.85;;;6.13;;
16743;SDS011;71724;-33.900;151.182;2023-12-07T03:04:17;22.08;;;6.20;;
16743;SDS011;71724;-33.900;151.182;2023-12-07T03:06:45;15.05;;;5.80;;
16743;SDS011;71724;-33.900;151.182;2023-12-07T03:09:13;18.67;;;7.32;;
16743;SDS011;71724;-33.900;151.182;2023-12-07T03:11:42;16.73;;;7.15;;
16743;SDS011;71724;-33.900;151.182;2023-12-07T03:14:12;17.02;;;8.32;;
16743;SDS011;71724;-33.900;151.182;2023-12-07T03:16:40;20.95;;;9.07;;
16743;SDS011;71724;-33.900;151.182;2023-12-07T03:19:09;23.92;;;11.63;;
16743;SDS011;71724;-33.900;151.182;2023-12-07T03:21:41;28.10;;;11.90;;
16743;SDS011;71724;-33.900;151.182;2023-12-07T03:24:14;20.67;;;12.07;;
16743;SDS011;71724;-33.900;151.182;2023-12-07T03:26:42;20.08;;;11.27;;
16743;SDS011;71724;-33.900;151.182;2023-12-07T03:29:11;18.52;;;10.07;;
16743;SDS011;71724;-33.900;151.182;2023-12-07T03:31:39;24.60;;;11.55;;
16743;SDS011;71724;-33.900;151.182;2023-12-07T03:34:07;19.50;;;9.63;;
16743;SDS011;71724;-33.900;151.182;2023-12-07T03:36:35;18.73;;;10.32;;
16743;SDS011;71724;-33.900;151.182;2023-12-07T03:39:05;17.70;;;10.00;;
16743;SDS011;71724;-33.900;151.182;2023-12-07T03:41:34;20.65;;;9.75;;
16743;SDS011;71724;-33.900;151.182;2023-12-07T03:44:02;20.88;;;9.50;;
16743;SDS011;71724;-33.900;151.182;2023-12-07T03:46:31;20.15;;;10.00;;
16743;SDS011;71724;-33.900;151.182;2023-12-07T03:48:59;17.80;;;9.00;;
16743;SDS011;71724;-33.900;151.182;2023-12-07T03:51:27;21.08;;;9.05;;
16743;SDS011;71724;-33.900;151.182;2023-12-07T03:54:02;17.13;;;7.93;;
16743;SDS011;71724;-33.900;151.182;2023-12-07T03:56:32;17.92;;;7.25;;
16743;SDS011;71724;-33.900;151.182;2023-12-07T03:59:03;19.30;;;6.88;;
16743;SDS011;71724;-33.900;151.182;2023-12-07T04:01:35;17.15;;;7.07;;
16743;SDS011;71724;-33.900;151.182;2023-12-07T04:04:04;13.95;;;5.93;;
16743;SDS011;71724;-33.900;151.182;2023-12-07T04:06:32;16.60;;;5.53;;
16743;SDS011;71724;-33.900;151.182;2023-12-07T04:09:00;14.55;;;5.05;;
16743;SDS011;71724;-33.900;151.182;2023-12-07T04:11:30;14.40;;;4.88;;
16743;SDS011;71724;-33.900;151.182;2023-12-07T04:14:02;19.98;;;5.43;;
16743;SDS011;71724;-33.900;151.182;2023-12-07T04:16:42;17.65;;;4.72;;
16743;SDS011;71724;-33.900;151.182;2023-12-07T04:19:11;14.63;;;4.25;;
16743;SDS011;71724;-33.900;151.182;2023-12-07T04:21:42;16.08;;;4.63;;
16743;SDS011;71724;-33.900;151.182;2023-12-07T04:24:10;10.57;;;4.40;;
16743;SDS011;71724;-33.900;151.182;2023-12-07T04:26:38;16.83;;;5.00;;
16743;SDS011;71724;-33.900;151.182;2023-12-07T04:29:07;17.10;;;4.57;;
16743;SDS011;71724;-33.900;151.182;2023-12-07T04:31:40;10.55;;;3.97;;
16743;SDS011;71724;-33.900;151.182;2023-12-07T04:34:19;18.88;;;4.18;;
16743;SDS011;71724;-33.900;151.182;2023-12-07T04:36:47;13.88;;;4.18;;
16743;SDS011;71724;-33.900;151.182;2023-12-07T04:39:16;16.00;;;4.32;;
16743;SDS011;71724;-33.900;151.182;2023-12-07T04:41:43;13.95;;;3.80;;
16743;SDS011;71724;-33.900;151.182;2023-12-07T04:44:11;13.63;;;3.40;;
16743;SDS011;71724;-33.900;151.182;2023-12-07T04:46:39;10.50;;;3.80;;
16743;SDS011;71724;-33.900;151.182;2023-12-07T04:49:10;15.55;;;3.50;;
16743;SDS011;71724;-33.900;151.182;2023-12-07T04:51:38;13.52;;;3.40;;
16743;SDS011;71724;-33.900;151.182;2023-12-07T04:54:07;13.20;;;3.10;;
16743;SDS011;71724;-33.900;151.182;2023-12-07T04:56:35;9.00;;;3.00;;
16743;SDS011;71724;-33.900;151.182;2023-12-07T04:59:06;10.88;;;3.50;;
16743;SDS011;71724;-33.900;151.182;2023-12-07T05:01:35;14.60;;;3.85;;
16743;SDS011;71724;-33.900;151.182;2023-12-07T05:04:03;13.25;;;3.33;;
16743;SDS011;71724;-33.900;151.182;2023-12-07T05:06:31;14.10;;;3.20;;
16743;SDS011;71724;-33.900;151.182;2023-12-07T05:08:59;13.93;;;2.97;;
16743;SDS011;71724;-33.900;151.182;2023-12-07T05:11:27;12.25;;;2.92;;
16743;SDS011;71724;-33.900;151.182;2023-12-07T05:13:58;14.35;;;3.83;;
16743;SDS011;71724;-33.900;151.182;2023-12-07T05:16:25;11.07;;;3.53;;
16743;SDS011;71724;-33.900;151.182;2023-12-07T05:18:58;15.35;;;3.65;;
16743;SDS011;71724;-33.900;151.182;2023-12-07T05:21:26;13.23;;;3.30;;
16743;SDS011;71724;-33.900;151.182;2023-12-07T05:23:54;14.25;;;3.42;;
16743;SDS011;71724;-33.900;151.182;2023-12-07T05:26:21;16.30;;;3.40;;
16743;SDS011;71724;-33.900;151.182;2023-12-07T05:28:48;18.00;;;3.50;;
16743;SDS011;71724;-33.900;151.182;2023-12-07T05:31:17;11.30;;;3.30;;
16743;SDS011;71724;-33.900;151.182;2023-12-07T05:33:45;14.23;;;3.67;;
16743;SDS011;71724;-33.900;151.182;2023-12-07T05:36:13;12.68;;;3.28;;
16743;SDS011;71724;-33.900;151.182;2023-12-07T05:38:40;11.73;;;3.30;;
16743;SDS011;71724;-33.900;151.182;2023-12-07T05:41:09;18.65;;;3.75;;
16743;SDS011;71724;-33.900;151.182;2023-12-07T05:43:42;15.68;;;3.05;;
16743;SDS011;71724;-33.900;151.182;2023-12-07T05:46:09;18.25;;;3.83;;
16743;SDS011;71724;-33.900;151.182;2023-12-07T05:48:37;13.32;;;3.92;;
16743;SDS011;71724;-33.900;151.182;2023-12-07T05:51:05;16.55;;;3.47;;
16743;SDS011;71724;-33.900;151.182;2023-12-07T05:53:37;11.43;;;3.20;;
16743;SDS011;71724;-33.900;151.182;2023-12-07T05:56:05;16.45;;;3.42;;
16743;SDS011;71724;-33.900;151.182;2023-12-07T05:58:32;16.90;;;4.13;;
16743;SDS011;71724;-33.900;151.182;2023-12-07T06:01:00;11.63;;;3.38;;
16743;SDS011;71724;-33.900;151.182;2023-12-07T06:03:28;13.80;;;3.65;;
16743;SDS011;71724;-33.900;151.182;2023-12-07T06:05:57;19.50;;;4.30;;
16743;SDS011;71724;-33.900;151.182;2023-12-07T06:08:24;9.73;;;2.85;;
16743;SDS011;71724;-33.900;151.182;2023-12-07T06:10:52;13.75;;;4.22;;
16743;SDS011;71724;-33.900;151.182;2023-12-07T06:13:26;12.48;;;3.33;;
16743;SDS011;71724;-33.900;151.182;2023-12-07T06:15:53;16.63;;;3.60;;
16743;SDS011;71724;-33.900;151.182;2023-12-07T06:18:20;12.20;;;3.45;;
16743;SDS011;71724;-33.900;151.182;2023-12-07T06:20:48;16.85;;;3.50;;
16743;SDS011;71724;-33.900;151.182;2023-12-07T06:23:15;16.88;;;3.63;;
16743;SDS011;71724;-33.900;151.182;2023-12-07T06:25:43;18.38;;;3.70;;
16743;SDS011;71724;-33.900;151.182;2023-12-07T06:28:10;18.27;;;3.90;;
16743;SDS011;71724;-33.900;151.182;2023-12-07T06:30:38;14.27;;;3.42;;
16743;SDS011;71724;-33.900;151.182;2023-12-07T06:33:05;12.30;;;3.25;;
16743;SDS011;71724;-33.900;151.182;2023-12-07T06:35:33;11.98;;;3.30;;
16743;SDS011;71724;-33.900;151.182;2023-12-07T06:38:01;16.42;;;3.70;;
16743;SDS011;71724;-33.900;151.182;2023-12-07T06:40:29;12.65;;;2.90;;
16743;SDS011;71724;-33.900;151.182;2023-12-07T06:42:59;11.25;;;2.72;;
16743;SDS011;71724;-33.900;151.182;2023-12-07T06:45:26;17.45;;;3.47;;
16743;SDS011;71724;-33.900;151.182;2023-12-07T06:47:53;15.10;;;4.32;;
16743;SDS011;71724;-33.900;151.182;2023-12-07T06:50:21;15.20;;;3.05;;
16743;SDS011;71724;-33.900;151.182;2023-12-07T06:52:50;15.30;;;3.67;;
16743;SDS011;71724;-33.900;151.182;2023-12-07T06:55:17;14.80;;;3.22;;
16743;SDS011;71724;-33.900;151.182;2023-12-07T06:57:45;16.17;;;3.72;;
16743;SDS011;71724;-33.900;151.182;2023-12-07T07:00:12;13.70;;;3.05;;
16743;SDS011;71724;-33.900;151.182;2023-12-07T07:02:40;13.52;;;2.92;;
16743;SDS011;71724;-33.900;151.182;2023-12-07T07:05:08;16.65;;;3.58;;
16743;SDS011;71724;-33.900;151.182;2023-12-07T07:07:37;12.60;;;3.20;;
16743;SDS011;71724;-33.900;151.182;2023-12-07T07:10:04;17.45;;;2.88;;
16743;SDS011;71724;-33.900;151.182;2023-12-07T07:12:35;22.48;;;4.25;;
16743;SDS011;71724;-33.900;151.182;2023-12-07T07:15:02;15.88;;;3.95;;
16743;SDS011;71724;-33.900;151.182;2023-12-07T07:17:30;18.52;;;4.65;;
16743;SDS011;71724;-33.900;151.182;2023-12-07T07:19:58;12.88;;;3.20;;
16743;SDS011;71724;-33.900;151.182;2023-12-07T07:22:25;13.80;;;3.40;;
16743;SDS011;71724;-33.900;151.182;2023-12-07T07:24:53;16.85;;;4.47;;
16743;SDS011;71724;-33.900;151.182;2023-12-07T07:27:20;16.77;;;3.85;;
16743;SDS011;71724;-33.900;151.182;2023-12-07T07:29:47;18.30;;;3.42;;
16743;SDS011;71724;-33.900;151.182;2023-12-07T07:32:15;14.95;;;3.30;;
16743;SDS011;71724;-33.900;151.182;2023-12-07T07:34:42;19.00;;;3.92;;
16743;SDS011;71724;-33.900;151.182;2023-12-07T07:37:09;20.13;;;4.10;;
16743;SDS011;71724;-33.900;151.182;2023-12-07T07:39:38;12.70;;;3.17;;
16743;SDS011;71724;-33.900;151.182;2023-12-07T07:42:05;14.75;;;3.50;;
16743;SDS011;71724;-33.900;151.182;2023-12-07T07:44:34;17.45;;;3.65;;
16743;SDS011;71724;-33.900;151.182;2023-12-07T07:47:01;11.35;;;3.50;;
16743;SDS011;71724;-33.900;151.182;2023-12-07T07:49:32;17.13;;;3.85;;
16743;SDS011;71724;-33.900;151.182;2023-12-07T07:51:59;13.50;;;3.65;;
16743;SDS011;71724;-33.900;151.182;2023-12-07T07:54:26;16.00;;;4.10;;
16743;SDS011;71724;-33.900;151.182;2023-12-07T07:56:54;12.52;;;3.70;;
16743;SDS011;71724;-33.900;151.182;2023-12-07T07:59:21;16.45;;;4.57;;
16743;SDS011;71724;-33.900;151.182;2023-12-07T08:01:49;13.23;;;3.83;;
16743;SDS011;71724;-33.900;151.182;2023-12-07T08:04:16;14.25;;;3.55;;
16743;SDS011;71724;-33.900;151.182;2023-12-07T08:06:49;16.85;;;4.13;;
16743;SDS011;71724;-33.900;151.182;2023-12-07T08:09:16;16.85;;;4.32;;
16743;SDS011;71724;-33.900;151.182;2023-12-07T08:11:44;18.10;;;3.95;;
16743;SDS011;71724;-33.900;151.182;2023-12-07T08:14:11;19.33;;;4.68;;
16743;SDS011;71724;-33.900;151.182;2023-12-07T08:16:44;12.18;;;2.78;;
16743;SDS011;71724;-33.900;151.182;2023-12-07T08:19:12;17.95;;;3.60;;
16743;SDS011;71724;-33.900;151.182;2023-12-07T08:21:40;11.77;;;4.00;;
16743;SDS011;71724;-33.900;151.182;2023-12-07T08:24:08;18.17;;;4.15;;
16743;SDS011;71724;-33.900;151.182;2023-12-07T08:26:35;10.38;;;3.10;;
16743;SDS011;71724;-33.900;151.182;2023-12-07T08:29:02;12.73;;;3.60;;
16743;SDS011;71724;-33.900;151.182;2023-12-07T08:31:30;14.65;;;3.92;;
16743;SDS011;71724;-33.900;151.182;2023-12-07T08:33:57;16.20;;;3.88;;
16743;SDS011;71724;-33.900;151.182;2023-12-07T08:36:26;13.38;;;4.20;;
16743;SDS011;71724;-33.900;151.182;2023-12-07T08:38:53;13.32;;;3.92;;
16743;SDS011;71724;-33.900;151.182;2023-12-07T08:41:21;11.93;;;3.33;;
16743;SDS011;71724;-33.900;151.182;2023-12-07T08:43:49;12.95;;;3.45;;
16743;SDS011;71724;-33.900;151.182;2023-12-07T08:46:16;15.57;;;3.45;;
16743;SDS011;71724;-33.900;151.182;2023-12-07T08:48:44;14.73;;;4.20;;
16743;SDS011;71724;-33.900;151.182;2023-12-07T08:51:11;14.32;;;4.25;;
16743;SDS011;71724;-33.900;151.182;2023-12-07T08:53:39;17.42;;;3.97;;
16743;SDS011;71724;-33.900;151.182;2023-12-07T08:56:06;15.98;;;4.82;;
16743;SDS011;71724;-33.900;151.182;2023-12-07T08:58:38;16.23;;;4.47;;
16743;SDS011;71724;-33.900;151.182;2023-12-07T09:01:06;16.20;;;4.25;;
16743;SDS011;71724;-33.900;151.182;2023-12-07T09:03:34;15.85;;;4.32;;
16743;SDS011;71724;-33.900;151.182;2023-12-07T09:06:03;18.65;;;4.50;;
16743;SDS011;71724;-33.900;151.182;2023-12-07T09:08:32;17.17;;;4.43;;
16743;SDS011;71724;-33.900;151.182;2023-12-07T09:10:59;12.32;;;4.55;;
16743;SDS011;71724;-33.900;151.182;2023-12-07T09:13:27;17.60;;;4.30;;
16743;SDS011;71724;-33.900;151.182;2023-12-07T09:15:54;10.88;;;3.70;;
16743;SDS011;71724;-33.900;151.182;2023-12-07T09:18:23;19.92;;;4.15;;
16743;SDS011;71724;-33.900;151.182;2023-12-07T09:20:51;18.02;;;4.00;;
16743;SDS011;71724;-33.900;151.182;2023-12-07T09:23:18;16.70;;;4.78;;
16743;SDS011;71724;-33.900;151.182;2023-12-07T09:25:45;20.23;;;4.97;;
16743;SDS011;71724;-33.900;151.182;2023-12-07T09:28:13;13.93;;;4.18;;
16743;SDS011;71724;-33.900;151.182;2023-12-07T09:30:40;13.68;;;3.53;;
16743;SDS011;71724;-33.900;151.182;2023-12-07T09:33:07;15.20;;;3.72;;
16743;SDS011;71724;-33.900;151.182;2023-12-07T09:35:35;16.33;;;4.22;;
16743;SDS011;71724;-33.900;151.182;2023-12-07T09:38:02;13.77;;;3.42;;
16743;SDS011;71724;-33.900;151.182;2023-12-07T09:40:30;13.68;;;3.35;;
16743;SDS011;71724;-33.900;151.182;2023-12-07T09:42:57;12.68;;;3.72;;
16743;SDS011;71724;-33.900;151.182;2023-12-07T09:45:25;13.38;;;3.42;;
16743;SDS011;71724;-33.900;151.182;2023-12-07T09:47:53;12.27;;;3.28;;
16743;SDS011;71724;-33.900;151.182;2023-12-07T09:50:21;18.08;;;4.35;;
16743;SDS011;71724;-33.900;151.182;2023-12-07T09:52:51;16.08;;;4.65;;
16743;SDS011;71724;-33.900;151.182;2023-12-07T09:55:19;16.20;;;4.28;;
16743;SDS011;71724;-33.900;151.182;2023-12-07T09:57:48;16.10;;;4.13;;
16743;SDS011;71724;-33.900;151.182;2023-12-07T10:00:17;18.05;;;4.55;;
16743;SDS011;71724;-33.900;151.182;2023-12-07T10:02:45;20.17;;;4.88;;
16743;SDS011;71724;-33.900;151.182;2023-12-07T10:05:13;15.95;;;3.58;;
16743;SDS011;71724;-33.900;151.182;2023-12-07T10:07:46;15.45;;;3.80;;
16743;SDS011;71724;-33.900;151.182;2023-12-07T10:10:16;16.90;;;4.53;;
16743;SDS011;71724;-33.900;151.182;2023-12-07T10:15:19;12.55;;;3.28;;
16743;SDS011;71724;-33.900;151.182;2023-12-07T10:17:54;11.15;;;3.22;;
16743;SDS011;71724;-33.900;151.182;2023-12-07T10:20:24;13.57;;;3.47;;
16743;SDS011;71724;-33.900;151.182;2023-12-07T10:25:30;13.50;;;3.35;;
16743;SDS011;71724;-33.900;151.182;2023-12-07T10:27:58;14.75;;;3.58;;
16743;SDS011;71724;-33.900;151.182;2023-12-07T10:30:26;12.52;;;3.10;;
16743;SDS011;71724;-33.900;151.182;2023-12-07T10:32:54;15.18;;;3.63;;
16743;SDS011;71724;-33.900;151.182;2023-12-07T10:35:21;20.05;;;4.22;;
16743;SDS011;71724;-33.900;151.182;2023-12-07T10:37:49;16.48;;;4.25;;
16743;SDS011;71724;-33.900;151.182;2023-12-07T10:40:16;15.25;;;3.33;;
16743;SDS011;71724;-33.900;151.182;2023-12-07T10:42:47;15.52;;;3.10;;
16743;SDS011;71724;-33.900;151.182;2023-12-07T10:45:15;18.63;;;4.05;;
16743;SDS011;71724;-33.900;151.182;2023-12-07T10:47:43;17.67;;;3.70;;
16743;SDS011;71724;-33.900;151.182;2023-12-07T10:50:11;15.48;;;4.00;;
16743;SDS011;71724;-33.900;151.182;2023-12-07T10:52:52;16.40;;;3.58;;
16743;SDS011;71724;-33.900;151.182;2023-12-07T10:55:21;11.00;;;3.15;;
16743;SDS011;71724;-33.900;151.182;2023-12-07T10:57:54;13.77;;;3.17;;
16743;SDS011;71724;-33.900;151.182;2023-12-07T11:00:23;14.88;;;3.55;;
16743;SDS011;71724;-33.900;151.182;2023-12-07T11:02:53;14.60;;;3.67;;
16743;SDS011;71724;-33.900;151.182;2023-12-07T11:05:20;15.73;;;3.45;;
16743;SDS011;71724;-33.900;151.182;2023-12-07T11:08:06;17.13;;;3.50;;
16743;SDS011;71724;-33.900;151.182;2023-12-07T11:13:40;12.68;;;3.47;;
16743;SDS011;71724;-33.900;151.182;2023-12-07T11:16:32;12.23;;;3.17;;
16743;SDS011;71724;-33.900;151.182;2023-12-07T11:19:03;15.68;;;3.35;;
16743;SDS011;71724;-33.900;151.182;2023-12-07T11:21:30;16.45;;;3.30;;
16743;SDS011;71724;-33.900;151.182;2023-12-07T11:24:01;17.63;;;4.03;;
16743;SDS011;71724;-33.900;151.182;2023-12-07T11:26:29;15.27;;;3.45;;
16743;SDS011;71724;-33.900;151.182;2023-12-07T11:28:57;13.07;;;2.70;;
16743;SDS011;71724;-33.900;151.182;2023-12-07T11:31:27;12.73;;;2.88;;
16743;SDS011;71724;-33.900;151.182;2023-12-07T11:33:54;12.32;;;3.10;;
16743;SDS011;71724;-33.900;151.182;2023-12-07T11:36:21;17.05;;;3.20;;
16743;SDS011;71724;-33.900;151.182;2023-12-07T11:39:15;13.82;;;3.92;;
16743;SDS011;71724;-33.900;151.182;2023-12-07T11:41:42;14.18;;;3.20;;
16743;SDS011;71724;-33.900;151.182;2023-12-07T11:44:11;21.20;;;4.22;;
16743;SDS011;71724;-33.900;151.182;2023-12-07T11:46:38;15.80;;;3.55;;
16743;SDS011;71724;-33.900;151.182;2023-12-07T11:49:06;17.77;;;3.83;;
16743;SDS011;71724;-33.900;151.182;2023-12-07T11:51:36;18.60;;;3.88;;
16743;SDS011;71724;-33.900;151.182;2023-12-07T11:54:04;17.13;;;3.92;;
16743;SDS011;71724;-33.900;151.182;2023-12-07T11:56:33;10.65;;;3.20;;
16743;SDS011;71724;-33.900;151.182;2023-12-07T11:59:01;16.20;;;3.20;;
16743;SDS011;71724;-33.900;151.182;2023-12-07T12:01:28;13.45;;;3.38;;
16743;SDS011;71724;-33.900;151.182;2023-12-07T12:03:56;15.45;;;3.33;;
16743;SDS011;71724;-33.900;151.182;2023-12-07T12:06:23;17.15;;;3.70;;
16743;SDS011;71724;-33.900;151.182;2023-12-07T12:08:53;16.40;;;3.38;;
16743;SDS011;71724;-33.900;151.182;2023-12-07T12:11:21;17.75;;;3.20;;
16743;SDS011;71724;-33.900;151.182;2023-12-07T12:13:49;15.88;;;3.50;;
16743;SDS011;71724;-33.900;151.182;2023-12-07T12:16:16;19.77;;;3.78;;
16743;SDS011;71724;-33.900;151.182;2023-12-07T12:18:44;17.58;;;4.10;;
16743;SDS011;71724;-33.900;151.182;2023-12-07T12:21:11;13.18;;;2.95;;
16743;SDS011;71724;-33.900;151.182;2023-12-07T12:23:38;18.02;;;3.28;;
16743;SDS011;71724;-33.900;151.182;2023-12-07T12:26:08;13.60;;;3.20;;
16743;SDS011;71724;-33.900;151.182;2023-12-07T12:28:36;13.70;;;3.17;;
16743;SDS011;71724;-33.900;151.182;2023-12-07T12:31:08;16.98;;;3.42;;
16743;SDS011;71724;-33.900;151.182;2023-12-07T12:33:37;15.40;;;3.40;;
16743;SDS011;71724;-33.900;151.182;2023-12-07T12:36:05;14.85;;;3.47;;
16743;SDS011;71724;-33.900;151.182;2023-12-07T12:38:36;16.27;;;3.63;;
16743;SDS011;71724;-33.900;151.182;2023-12-07T12:41:04;11.80;;;3.00;;
16743;SDS011;71724;-33.900;151.182;2023-12-07T12:43:32;18.20;;;3.25;;
16743;SDS011;71724;-33.900;151.182;2023-12-07T12:46:00;14.32;;;3.15;;
16743;SDS011;71724;-33.900;151.182;2023-12-07T12:48:28;10.98;;;3.10;;
16743;SDS011;71724;-33.900;151.182;2023-12-07T12:50:56;13.00;;;2.63;;
16743;SDS011;71724;-33.900;151.182;2023-12-07T12:53:23;14.68;;;3.05;;
16743;SDS011;71724;-33.900;151.182;2023-12-07T12:55:53;11.90;;;3.00;;
16743;SDS011;71724;-33.900;151.182;2023-12-07T12:58:24;11.82;;;2.80;;
16743;SDS011;71724;-33.900;151.182;2023-12-07T13:00:52;18.13;;;3.63;;
16743;SDS011;71724;-33.900;151.182;2023-12-07T13:03:19;14.75;;;2.97;;
16743;SDS011;71724;-33.900;151.182;2023-12-07T13:05:46;19.70;;;3.28;;
16743;SDS011;71724;-33.900;151.182;2023-12-07T13:08:14;19.05;;;3.40;;
16743;SDS011;71724;-33.900;151.182;2023-12-07T13:10:41;14.70;;;3.38;;
16743;SDS011;71724;-33.900;151.182;2023-12-07T13:13:09;15.43;;;3.17;;
16743;SDS011;71724;-33.900;151.182;2023-12-07T13:15:36;13.43;;;3.40;;
16743;SDS011;71724;-33.900;151.182;2023-12-07T13:18:04;13.88;;;3.58;;
16743;SDS011;71724;-33.900;151.182;2023-12-07T13:20:31;19.50;;;3.67;;
16743;SDS011;71724;-33.900;151.182;2023-12-07T13:23:00;12.52;;;3.03;;
16743;SDS011;71724;-33.900;151.182;2023-12-07T13:25:28;16.65;;;3.15;;
16743;SDS011;71724;-33.900;151.182;2023-12-07T13:27:56;17.35;;;3.75;;
16743;SDS011;71724;-33.900;151.182;2023-12-07T13:30:24;20.70;;;3.33;;
16743;SDS011;71724;-33.900;151.182;2023-12-07T13:32:55;10.48;;;2.95;;
16743;SDS011;71724;-33.900;151.182;2023-12-07T13:35:22;20.90;;;3.65;;
16743;SDS011;71724;-33.900;151.182;2023-12-07T13:37:50;19.65;;;3.65;;
16743;SDS011;71724;-33.900;151.182;2023-12-07T13:40:17;16.85;;;3.85;;
16743;SDS011;71724;-33.900;151.182;2023-12-07T13:42:45;19.52;;;3.83;;
16743;SDS011;71724;-33.900;151.182;2023-12-07T13:45:12;15.25;;;3.10;;
16743;SDS011;71724;-33.900;151.182;2023-12-07T13:47:40;16.20;;;3.17;;
16743;SDS011;71724;-33.900;151.182;2023-12-07T13:50:07;15.13;;;2.78;;
16743;SDS011;71724;-33.900;151.182;2023-12-07T13:52:34;18.42;;;3.10;;
16743;SDS011;71724;-33.900;151.182;2023-12-07T13:55:02;14.90;;;3.33;;
16743;SDS011;71724;-33.900;151.182;2023-12-07T13:57:30;17.77;;;3.30;;
16743;SDS011;71724;-33.900;151.182;2023-12-07T13:59:57;15.50;;;3.75;;
16743;SDS011;71724;-33.900;151.182;2023-12-07T14:02:25;10.25;;;2.70;;
16743;SDS011;71724;-33.900;151.182;2023-12-07T14:04:54;16.55;;;3.80;;
16743;SDS011;71724;-33.900;151.182;2023-12-07T14:07:25;14.23;;;2.88;;
16743;SDS011;71724;-33.900;151.182;2023-12-07T14:09:53;9.63;;;2.78;;
16743;SDS011;71724;-33.900;151.182;2023-12-07T14:12:20;13.95;;;3.35;;
16743;SDS011;71724;-33.900;151.182;2023-12-07T14:14:48;16.58;;;3.38;;